sensor_id;sensor_type;location;lat;lon;timestamp;pressure;altitude;pressure_sealevel;temperature;humidity
55801;BME280;41730;51.960;20.158;2023-04-07T00:00:15;100146.54;;;3.53;84.14
55801;BME280;41730;51.960;20.158;2023-04-07T00:02:45;100143.46;;;3.46;84.62
55801;BME280;41730;51.960;20.158;2023-04-07T00:05:21;100142.59;;;3.52;84.32
55801;BME280;41730;51.960;20.158;2023-04-07T00:07:50;100134.95;;;3.46;84.28
55801;BME280;41730;51.960;20.158;2023-04-07T00:10:26;100138.08;;;3.58;84.04
55801;BME280;41730;51.960;20.158;2023-04-07T00:12:55;100138.77;;;3.55;84.09
55801;BME280;41730;51.960;20.158;2023-04-07T00:15:25;100136.95;;;3.57;84.19
55801;BME280;41730;51.960;20.158;2023-04-07T00:17:55;100138.14;;;3.51;84.17
55801;BME280;41730;51.960;20.158;2023-04-07T00:20:25;100136.88;;;3.46;84.53
55801;BME280;41730;51.960;20.158;2023-04-07T00:22:55;100136.09;;;3.53;84.13
55801;BME280;41730;51.960;20.158;2023-04-07T00:25:25;100137.27;;;3.51;84.50
55801;BME280;41730;51.960;20.158;2023-04-07T00:27:54;100133.59;;;3.74;83.67
55801;BME280;41730;51.960;20.158;2023-04-07T00:30:24;100130.36;;;3.73;83.50
55801;BME280;41730;51.960;20.158;2023-04-07T00:32:53;100129.39;;;3.72;83.63
55801;BME280;41730;51.960;20.158;2023-04-07T00:35:23;100128.90;;;3.65;83.81
55801;BME280;41730;51.960;20.158;2023-04-07T00:37:54;100130.45;;;3.52;84.32
55801;BME280;41730;51.960;20.158;2023-04-07T00:40:25;100128.35;;;3.53;84.45
55801;BME280;41730;51.960;20.158;2023-04-07T00:42:55;100128.48;;;3.50;84.43
55801;BME280;41730;51.960;20.158;2023-04-07T00:45:28;100118.82;;;3.46;84.60
55801;BME280;41730;51.960;20.158;2023-04-07T00:48:00;100123.89;;;3.55;84.33
55801;BME280;41730;51.960;20.158;2023-04-07T00:50:30;100125.00;;;3.66;84.03
55801;BME280;41730;51.960;20.158;2023-04-07T00:53:02;100124.48;;;3.60;84.01
55801;BME280;41730;51.960;20.158;2023-04-07T00:55:32;100120.87;;;3.59;84.33
55801;BME280;41730;51.960;20.158;2023-04-07T00:58:04;100123.20;;;3.68;84.00
55801;BME280;41730;51.960;20.158;2023-04-07T01:00:37;100121.80;;;3.74;83.77
55801;BME280;41730;51.960;20.158;2023-04-07T01:03:16;100120.38;;;3.81;83.75
55801;BME280;41730;51.960;20.158;2023-04-07T01:05:53;100114.98;;;3.90;83.10
55801;BME280;41730;51.960;20.158;2023-04-07T01:08:48;100114.92;;;3.76;83.44
55801;BME280;41730;51.960;20.158;2023-04-07T01:11:26;100115.05;;;3.74;83.80
55801;BME280;41730;51.960;20.158;2023-04-07T01:14:02;100112.21;;;3.81;83.54
55801;BME280;41730;51.960;20.158;2023-04-07T01:16:36;100109.92;;;3.72;83.70
55801;BME280;41730;51.960;20.158;2023-04-07T01:19:14;100107.27;;;3.70;83.87
55801;BME280;41730;51.960;20.158;2023-04-07T01:21:47;100097.84;;;3.74;83.74
55801;BME280;41730;51.960;20.158;2023-04-07T01:24:44;100108.94;;;3.81;83.48
55801;BME280;41730;51.960;20.158;2023-04-07T01:27:24;100102.38;;;3.83;83.62
55801;BME280;41730;51.960;20.158;2023-04-07T01:30:04;100102.94;;;3.91;83.03
55801;BME280;41730;51.960;20.158;2023-04-07T01:32:38;100098.77;;;4.10;82.60
55801;BME280;41730;51.960;20.158;2023-04-07T01:35:15;100093.37;;;4.13;82.34
55801;BME280;41730;51.960;20.158;2023-04-07T01:37:49;100095.63;;;4.04;82.63
55801;BME280;41730;51.960;20.158;2023-04-07T01:40:21;100094.33;;;4.12;82.56
55801;BME280;41730;51.960;20.158;2023-04-07T01:42:53;100091.61;;;4.11;82.28
55801;BME280;41730;51.960;20.158;2023-04-07T01:45:26;100083.85;;;3.86;83.17
55801;BME280;41730;51.960;20.158;2023-04-07T01:48:08;100085.89;;;3.77;83.66
55801;BME280;41730;51.960;20.158;2023-04-07T01:50:39;100081.34;;;3.84;83.74
55801;BME280;41730;51.960;20.158;2023-04-07T01:53:12;100086.38;;;3.99;83.15
55801;BME280;41730;51.960;20.158;2023-04-07T01:55:43;100081.94;;;3.95;83.01
55801;BME280;41730;51.960;20.158;2023-04-07T01:58:16;100081.61;;;3.85;83.25
55801;BME280;41730;51.960;20.158;2023-04-07T02:00:45;100078.40;;;3.75;83.65
55801;BME280;41730;51.960;20.158;2023-04-07T02:03:22;100077.20;;;3.78;83.67
55801;BME280;41730;51.960;20.158;2023-04-07T02:05:56;100077.02;;;3.96;83.15
55801;BME280;41730;51.960;20.158;2023-04-07T02:08:29;100086.19;;;3.99;82.94
55801;BME280;41730;51.960;20.158;2023-04-07T02:11:01;100087.41;;;3.99;82.70
55801;BME280;41730;51.960;20.158;2023-04-07T02:13:37;100079.44;;;3.93;83.02
55801;BME280;41730;51.960;20.158;2023-04-07T02:16:09;100083.70;;;3.89;83.23
55801;BME280;41730;51.960;20.158;2023-04-07T02:18:40;100083.08;;;3.96;83.07
55801;BME280;41730;51.960;20.158;2023-04-07T02:21:12;100079.46;;;3.99;82.83
55801;BME280;41730;51.960;20.158;2023-04-07T02:23:43;100084.86;;;3.98;82.93
55801;BME280;41730;51.960;20.158;2023-04-07T02:26:14;100089.20;;;3.92;83.19
55801;BME280;41730;51.960;20.158;2023-04-07T02:28:43;100089.42;;;3.82;83.58
55801;BME280;41730;51.960;20.158;2023-04-07T02:31:12;100087.14;;;3.83;83.64
55801;BME280;41730;51.960;20.158;2023-04-07T02:33:45;100074.75;;;3.84;83.53
55801;BME280;41730;51.960;20.158;2023-04-07T02:36:19;100075.05;;;3.82;83.66
55801;BME280;41730;51.960;20.158;2023-04-07T02:38:48;100074.09;;;3.77;83.88
55801;BME280;41730;51.960;20.158;2023-04-07T02:41:18;100072.87;;;3.80;83.88
55801;BME280;41730;51.960;20.158;2023-04-07T02:43:49;100073.14;;;3.82;84.02
55801;BME280;41730;51.960;20.158;2023-04-07T02:46:26;100077.33;;;3.87;83.77
55801;BME280;41730;51.960;20.158;2023-04-07T02:48:58;100081.69;;;3.96;83.46
55801;BME280;41730;51.960;20.158;2023-04-07T02:51:30;100080.15;;;3.96;83.36
55801;BME280;41730;51.960;20.158;2023-04-07T02:54:01;100073.42;;;3.92;83.54
55801;BME280;41730;51.960;20.158;2023-04-07T02:56:32;100070.59;;;3.90;83.75
55801;BME280;41730;51.960;20.158;2023-04-07T02:59:04;100070.57;;;3.96;83.67
55801;BME280;41730;51.960;20.158;2023-04-07T03:01:36;100069.38;;;3.99;83.55
55801;BME280;41730;51.960;20.158;2023-04-07T03:04:08;100072.48;;;4.09;83.38
55801;BME280;41730;51.960;20.158;2023-04-07T03:06:38;100075.69;;;4.28;82.68
55801;BME280;41730;51.960;20.158;2023-04-07T03:09:08;100073.42;;;4.22;82.74
55801;BME280;41730;51.960;20.158;2023-04-07T03:11:41;100075.54;;;4.39;82.08
55801;BME280;41730;51.960;20.158;2023-04-07T03:14:10;100074.61;;;4.37;82.04
55801;BME280;41730;51.960;20.158;2023-04-07T03:16:41;100078.02;;;4.23;82.50
55801;BME280;41730;51.960;20.158;2023-04-07T03:19:19;100075.30;;;4.23;82.80
55801;BME280;41730;51.960;20.158;2023-04-07T03:21:50;100065.78;;;4.34;82.41
55801;BME280;41730;51.960;20.158;2023-04-07T03:24:23;100068.46;;;4.30;82.41
55801;BME280;41730;51.960;20.158;2023-04-07T03:26:53;100068.05;;;4.28;82.72
55801;BME280;41730;51.960;20.158;2023-04-07T03:29:24;100070.46;;;4.34;82.36
55801;BME280;41730;51.960;20.158;2023-04-07T03:38:53;100069.70;;;4.59;81.67
55801;BME280;41730;51.960;20.158;2023-04-07T03:41:38;100065.46;;;4.69;81.17
55801;BME280;41730;51.960;20.158;2023-04-07T03:44:08;100059.34;;;4.78;80.91
55801;BME280;41730;51.960;20.158;2023-04-07T03:46:37;100055.05;;;4.74;80.85
55801;BME280;41730;51.960;20.158;2023-04-07T03:49:06;100058.36;;;4.57;81.42
55801;BME280;41730;51.960;20.158;2023-04-07T03:51:35;100063.70;;;4.46;82.04
55801;BME280;41730;51.960;20.158;2023-04-07T03:54:05;100057.92;;;4.50;81.73
55801;BME280;41730;51.960;20.158;2023-04-07T03:56:36;100056.39;;;4.40;82.13
55801;BME280;41730;51.960;20.158;2023-04-07T03:59:09;100057.38;;;4.44;82.23
55801;BME280;41730;51.960;20.158;2023-04-07T04:01:40;100061.98;;;4.48;82.00
55801;BME280;41730;51.960;20.158;2023-04-07T04:04:13;100064.50;;;4.44;82.12
55801;BME280;41730;51.960;20.158;2023-04-07T04:06:44;100065.46;;;4.42;82.22
55801;BME280;41730;51.960;20.158;2023-04-07T04:09:15;100061.61;;;4.43;82.26
55801;BME280;41730;51.960;20.158;2023-04-07T04:11:49;100066.30;;;4.46;82.09
55801;BME280;41730;51.960;20.158;2023-04-07T04:14:20;100069.14;;;4.42;82.53
55801;BME280;41730;51.960;20.158;2023-04-07T04:16:54;100068.42;;;4.42;82.39
55801;BME280;41730;51.960;20.158;2023-04-07T04:19:23;100068.45;;;4.42;82.60
55801;BME280;41730;51.960;20.158;2023-04-07T04:21:53;100074.36;;;4.47;82.41
55801;BME280;41730;51.960;20.158;2023-04-07T04:24:22;100072.62;;;4.44;82.60
55801;BME280;41730;51.960;20.158;2023-04-07T04:26:51;100075.78;;;4.56;82.34
55801;BME280;41730;51.960;20.158;2023-04-07T04:29:20;100074.55;;;4.56;82.34
55801;BME280;41730;51.960;20.158;2023-04-07T04:31:52;100079.52;;;4.57;82.16
55801;BME280;41730;51.960;20.158;2023-04-07T04:34:21;100077.34;;;4.53;82.37
55801;BME280;41730;51.960;20.158;2023-04-07T04:36:50;100075.77;;;4.47;82.57
55801;BME280;41730;51.960;20.158;2023-04-07T04:39:21;100076.74;;;4.48;82.63
55801;BME280;41730;51.960;20.158;2023-04-07T04:41:53;100073.09;;;4.45;82.85
55801;BME280;41730;51.960;20.158;2023-04-07T04:44:24;100070.67;;;4.48;82.70
55801;BME280;41730;51.960;20.158;2023-04-07T04:46:58;100077.34;;;4.56;82.61
55801;BME280;41730;51.960;20.158;2023-04-07T04:49:30;100078.87;;;4.68;82.39
55801;BME280;41730;51.960;20.158;2023-04-07T04:52:00;100070.89;;;4.59;82.47
55801;BME280;41730;51.960;20.158;2023-04-07T04:54:29;100071.16;;;4.58;82.59
55801;BME280;41730;51.960;20.158;2023-04-07T04:57:04;100066.68;;;4.51;82.84
55801;BME280;41730;51.960;20.158;2023-04-07T04:59:36;100069.33;;;4.68;82.68
55801;BME280;41730;51.960;20.158;2023-04-07T05:02:08;100066.77;;;4.73;82.27
55801;BME280;41730;51.960;20.158;2023-04-07T05:04:42;100073.66;;;4.88;81.74
55801;BME280;41730;51.960;20.158;2023-04-07T05:07:11;100071.70;;;4.86;81.80
55801;BME280;41730;51.960;20.158;2023-04-07T05:09:42;100072.31;;;4.79;82.42
55801;BME280;41730;51.960;20.158;2023-04-07T05:12:15;100072.12;;;4.82;82.26
55801;BME280;41730;51.960;20.158;2023-04-07T05:14:50;100072.91;;;4.89;82.04
55801;BME280;41730;51.960;20.158;2023-04-07T05:17:21;100071.08;;;4.88;82.07
55801;BME280;41730;51.960;20.158;2023-04-07T05:19:55;100071.02;;;4.91;82.23
55801;BME280;41730;51.960;20.158;2023-04-07T05:22:24;100074.64;;;4.89;82.06
55801;BME280;41730;51.960;20.158;2023-04-07T05:24:53;100080.52;;;4.86;82.56
55801;BME280;41730;51.960;20.158;2023-04-07T05:27:22;100081.72;;;4.98;82.29
55801;BME280;41730;51.960;20.158;2023-04-07T05:29:51;100076.61;;;4.97;82.32
55801;BME280;41730;51.960;20.158;2023-04-07T05:32:20;100083.84;;;4.98;82.17
55801;BME280;41730;51.960;20.158;2023-04-07T05:34:50;100083.13;;;5.09;82.00
55801;BME280;41730;51.960;20.158;2023-04-07T05:37:19;100083.72;;;5.02;82.18
55801;BME280;41730;51.960;20.158;2023-04-07T05:39:50;100084.39;;;5.06;82.16
55801;BME280;41730;51.960;20.158;2023-04-07T05:42:19;100090.91;;;5.07;82.35
55801;BME280;41730;51.960;20.158;2023-04-07T05:44:52;100090.91;;;5.12;82.03
55801;BME280;41730;51.960;20.158;2023-04-07T05:47:25;100079.10;;;5.18;82.04
55801;BME280;41730;51.960;20.158;2023-04-07T05:49:54;100090.14;;;5.22;81.88
55801;BME280;41730;51.960;20.158;2023-04-07T05:52:23;100090.86;;;5.22;81.96
55801;BME280;41730;51.960;20.158;2023-04-07T05:54:55;100087.91;;;5.13;82.45
55801;BME280;41730;51.960;20.158;2023-04-07T05:57:24;100083.17;;;5.25;82.19
55801;BME280;41730;51.960;20.158;2023-04-07T05:59:55;100082.74;;;5.38;81.86
55801;BME280;41730;51.960;20.158;2023-04-07T06:02:26;100084.34;;;5.48;81.44
55801;BME280;41730;51.960;20.158;2023-04-07T06:04:56;100084.91;;;5.53;81.16
55801;BME280;41730;51.960;20.158;2023-04-07T06:07:25;100079.48;;;5.34;81.77
55801;BME280;41730;51.960;20.158;2023-04-07T06:09:55;100088.64;;;5.38;81.99
55801;BME280;41730;51.960;20.158;2023-04-07T06:12:24;100087.52;;;5.48;81.82
55801;BME280;41730;51.960;20.158;2023-04-07T06:15:04;100082.80;;;5.42;81.96
55801;BME280;41730;51.960;20.158;2023-04-07T06:17:52;100087.38;;;5.58;81.72
55801;BME280;41730;51.960;20.158;2023-04-07T06:20:29;100090.04;;;5.70;81.33
55801;BME280;41730;51.960;20.158;2023-04-07T06:23:00;100088.89;;;5.75;81.29
55801;BME280;41730;51.960;20.158;2023-04-07T06:25:44;100087.19;;;5.74;81.24
55801;BME280;41730;51.960;20.158;2023-04-07T06:28:37;100082.73;;;5.65;81.50
55801;BME280;41730;51.960;20.158;2023-04-07T06:31:47;100084.36;;;5.61;82.35
55801;BME280;41730;51.960;20.158;2023-04-07T06:34:16;100084.14;;;5.79;81.83
55801;BME280;41730;51.960;20.158;2023-04-07T06:36:45;100080.02;;;5.83;81.32
55801;BME280;41730;51.960;20.158;2023-04-07T06:39:14;100081.71;;;5.79;81.50
55801;BME280;41730;51.960;20.158;2023-04-07T06:41:43;100084.08;;;5.79;81.71
55801;BME280;41730;51.960;20.158;2023-04-07T06:44:13;100080.73;;;5.75;82.14
55801;BME280;41730;51.960;20.158;2023-04-07T06:46:43;100074.46;;;5.77;82.10
55801;BME280;41730;51.960;20.158;2023-04-07T06:49:17;100079.22;;;5.90;81.95
55801;BME280;41730;51.960;20.158;2023-04-07T06:51:46;100078.63;;;5.91;81.81
55801;BME280;41730;51.960;20.158;2023-04-07T06:54:19;100072.38;;;5.91;81.78
55801;BME280;41730;51.960;20.158;2023-04-07T06:56:48;100081.84;;;5.93;81.96
55801;BME280;41730;51.960;20.158;2023-04-07T06:59:19;100079.66;;;6.02;81.72
55801;BME280;41730;51.960;20.158;2023-04-07T07:01:49;100077.41;;;6.12;81.47
55801;BME280;41730;51.960;20.158;2023-04-07T07:04:18;100076.27;;;6.06;81.64
55801;BME280;41730;51.960;20.158;2023-04-07T07:06:48;100075.39;;;6.06;81.91
55801;BME280;41730;51.960;20.158;2023-04-07T07:09:17;100074.98;;;6.05;82.14
55801;BME280;41730;51.960;20.158;2023-04-07T07:11:46;100074.73;;;6.11;82.27
55801;BME280;41730;51.960;20.158;2023-04-07T07:14:17;100068.69;;;6.10;82.08
55801;BME280;41730;51.960;20.158;2023-04-07T07:16:46;100074.64;;;6.10;82.44
55801;BME280;41730;51.960;20.158;2023-04-07T07:19:16;100070.40;;;6.21;82.36
55801;BME280;41730;51.960;20.158;2023-04-07T07:21:46;100068.80;;;6.22;82.34
55801;BME280;41730;51.960;20.158;2023-04-07T07:24:18;100069.86;;;6.29;82.45
55801;BME280;41730;51.960;20.158;2023-04-07T07:26:47;100066.83;;;6.33;82.35
55801;BME280;41730;51.960;20.158;2023-04-07T07:29:17;100065.82;;;6.38;82.27
55801;BME280;41730;51.960;20.158;2023-04-07T07:31:46;100069.42;;;6.28;82.69
55801;BME280;41730;51.960;20.158;2023-04-07T07:34:21;100074.23;;;6.37;82.65
55801;BME280;41730;51.960;20.158;2023-04-07T07:36:50;100071.50;;;6.39;82.57
55801;BME280;41730;51.960;20.158;2023-04-07T07:39:20;100074.62;;;6.49;82.45
55801;BME280;41730;51.960;20.158;2023-04-07T07:41:49;100071.16;;;6.49;82.43
55801;BME280;41730;51.960;20.158;2023-04-07T07:44:18;100077.93;;;6.49;82.76
55801;BME280;41730;51.960;20.158;2023-04-07T07:46:50;100076.59;;;6.66;82.28
55801;BME280;41730;51.960;20.158;2023-04-07T07:49:19;100076.96;;;6.66;82.39
55801;BME280;41730;51.960;20.158;2023-04-07T07:51:48;100076.91;;;6.59;82.54
55801;BME280;41730;51.960;20.158;2023-04-07T07:54:18;100074.49;;;6.41;83.36
55801;BME280;41730;51.960;20.158;2023-04-07T07:56:50;100078.77;;;6.39;83.85
55801;BME280;41730;51.960;20.158;2023-04-07T07:59:22;100077.55;;;6.42;84.01
55801;BME280;41730;51.960;20.158;2023-04-07T08:01:55;100081.58;;;6.52;84.00
55801;BME280;41730;51.960;20.158;2023-04-07T08:04:24;100089.13;;;6.69;83.46
55801;BME280;41730;51.960;20.158;2023-04-07T08:06:54;100088.52;;;6.65;83.67
55801;BME280;41730;51.960;20.158;2023-04-07T08:09:23;100085.11;;;6.64;83.85
55801;BME280;41730;51.960;20.158;2023-04-07T08:11:52;100084.74;;;6.62;84.30
55801;BME280;41730;51.960;20.158;2023-04-07T08:14:21;100082.98;;;6.62;84.42
55801;BME280;41730;51.960;20.158;2023-04-07T08:16:50;100080.03;;;6.75;84.53
55801;BME280;41730;51.960;20.158;2023-04-07T08:19:19;100079.96;;;6.81;84.38
55801;BME280;41730;51.960;20.158;2023-04-07T08:21:49;100075.17;;;6.82;84.52
55801;BME280;41730;51.960;20.158;2023-04-07T08:24:18;100074.87;;;6.81;84.83
55801;BME280;41730;51.960;20.158;2023-04-07T08:26:47;100078.70;;;6.86;84.89
55801;BME280;41730;51.960;20.158;2023-04-07T08:29:17;100076.98;;;6.98;84.63
55801;BME280;41730;51.960;20.158;2023-04-07T08:31:46;100079.73;;;7.01;84.74
55801;BME280;41730;51.960;20.158;2023-04-07T08:34:15;100078.74;;;7.13;84.31
55801;BME280;41730;51.960;20.158;2023-04-07T08:36:46;100080.02;;;7.20;84.11
55801;BME280;41730;51.960;20.158;2023-04-07T08:39:15;100076.48;;;7.38;83.56
55801;BME280;41730;51.960;20.158;2023-04-07T08:41:47;100081.15;;;7.43;83.49
55801;BME280;41730;51.960;20.158;2023-04-07T08:44:21;100084.34;;;7.60;82.89
55801;BME280;41730;51.960;20.158;2023-04-07T08:46:51;100082.38;;;7.55;82.81
55801;BME280;41730;51.960;20.158;2023-04-07T08:49:24;100078.26;;;7.52;83.33
55801;BME280;41730;51.960;20.158;2023-04-07T08:51:58;100080.80;;;7.53;83.21
55801;BME280;41730;51.960;20.158;2023-04-07T08:54:28;100083.09;;;7.38;83.58
55801;BME280;41730;51.960;20.158;2023-04-07T08:57:02;100081.89;;;7.26;84.20
55801;BME280;41730;51.960;20.158;2023-04-07T08:59:33;100078.55;;;7.26;84.21
55801;BME280;41730;51.960;20.158;2023-04-07T09:02:04;100083.09;;;7.23;84.54
55801;BME280;41730;51.960;20.158;2023-04-07T09:04:34;100079.60;;;7.31;84.51
55801;BME280;41730;51.960;20.158;2023-04-07T09:07:03;100074.55;;;7.40;84.19
55801;BME280;41730;51.960;20.158;2023-04-07T09:09:35;100082.87;;;7.63;83.60
55801;BME280;41730;51.960;20.158;2023-04-07T09:12:05;100081.94;;;7.61;83.43
55801;BME280;41730;51.960;20.158;2023-04-07T09:14:35;100080.52;;;7.66;83.53
55801;BME280;41730;51.960;20.158;2023-04-07T09:17:05;100077.80;;;7.68;83.38
55801;BME280;41730;51.960;20.158;2023-04-07T09:19:34;100077.30;;;7.65;83.71
55801;BME280;41730;51.960;20.158;2023-04-07T09:22:03;100073.20;;;7.54;84.18
55801;BME280;41730;51.960;20.158;2023-04-07T09:24:32;100066.25;;;7.49;84.71
55801;BME280;41730;51.960;20.158;2023-04-07T09:27:11;100061.10;;;7.48;85.15
55801;BME280;41730;51.960;20.158;2023-04-07T09:29:47;100066.00;;;7.59;84.88
55801;BME280;41730;51.960;20.158;2023-04-07T09:32:35;100062.89;;;7.64;84.92
55801;BME280;41730;51.960;20.158;2023-04-07T09:35:08;100065.27;;;7.79;84.78
55801;BME280;41730;51.960;20.158;2023-04-07T09:37:44;100063.84;;;7.96;84.12
55801;BME280;41730;51.960;20.158;2023-04-07T09:40:31;100064.27;;;7.90;84.44
55801;BME280;41730;51.960;20.158;2023-04-07T09:43:04;100064.04;;;7.91;84.34
55801;BME280;41730;51.960;20.158;2023-04-07T09:45:34;100065.87;;;7.90;84.91
55801;BME280;41730;51.960;20.158;2023-04-07T09:48:17;100064.86;;;7.95;84.94
55801;BME280;41730;51.960;20.158;2023-04-07T09:51:07;100060.03;;;8.12;84.49
55801;BME280;41730;51.960;20.158;2023-04-07T09:53:50;100062.30;;;8.12;84.41
55801;BME280;41730;51.960;20.158;2023-04-07T09:56:25;100063.27;;;8.13;84.63
55801;BME280;41730;51.960;20.158;2023-04-07T09:59:06;100060.14;;;8.08;84.70
55801;BME280;41730;51.960;20.158;2023-04-07T10:01:41;100060.85;;;8.15;85.19
55801;BME280;41730;51.960;20.158;2023-04-07T10:04:15;100066.80;;;8.13;85.37
55801;BME280;41730;51.960;20.158;2023-04-07T10:06:45;100067.78;;;8.16;85.23
55801;BME280;41730;51.960;20.158;2023-04-07T10:09:18;100064.80;;;8.18;85.58
55801;BME280;41730;51.960;20.158;2023-04-07T10:11:49;100064.38;;;8.26;85.40
55801;BME280;41730;51.960;20.158;2023-04-07T10:14:19;100061.52;;;8.32;85.70
55801;BME280;41730;51.960;20.158;2023-04-07T10:16:49;100057.59;;;8.30;85.47
55801;BME280;41730;51.960;20.158;2023-04-07T10:19:19;100059.66;;;8.33;85.50
55801;BME280;41730;51.960;20.158;2023-04-07T10:21:52;100052.14;;;8.43;85.51
55801;BME280;41730;51.960;20.158;2023-04-07T10:24:41;100065.27;;;8.75;84.90
55801;BME280;41730;51.960;20.158;2023-04-07T10:27:18;100060.81;;;8.90;84.21
55801;BME280;41730;51.960;20.158;2023-04-07T10:29:51;100057.95;;;8.75;84.88
55801;BME280;41730;51.960;20.158;2023-04-07T10:32:20;100061.34;;;8.71;85.25
55801;BME280;41730;51.960;20.158;2023-04-07T10:35:02;100058.21;;;8.83;85.28
55801;BME280;41730;51.960;20.158;2023-04-07T10:37:37;100061.09;;;8.88;85.43
55801;BME280;41730;51.960;20.158;2023-04-07T10:40:27;100062.36;;;8.88;85.34
55801;BME280;41730;51.960;20.158;2023-04-07T10:43:12;100064.74;;;8.91;85.66
55801;BME280;41730;51.960;20.158;2023-04-07T10:46:07;100066.13;;;9.04;85.63
55801;BME280;41730;51.960;20.158;2023-04-07T10:48:39;100066.09;;;9.07;85.69
55801;BME280;41730;51.960;20.158;2023-04-07T10:51:27;100061.50;;;9.12;85.72
55801;BME280;41730;51.960;20.158;2023-04-07T10:54:22;100067.59;;;9.23;85.73
55801;BME280;41730;51.960;20.158;2023-04-07T10:57:14;100065.30;;;9.26;85.55
55801;BME280;41730;51.960;20.158;2023-04-07T11:00:18;100066.21;;;9.23;86.11
55801;BME280;41730;51.960;20.158;2023-04-07T11:02:54;100066.79;;;9.23;86.03
55801;BME280;41730;51.960;20.158;2023-04-07T11:05:33;100075.16;;;9.32;85.99
55801;BME280;41730;51.960;20.158;2023-04-07T11:08:47;100067.48;;;9.45;85.75
55801;BME280;41730;51.960;20.158;2023-04-07T11:11:52;100070.62;;;9.60;85.18
55801;BME280;41730;51.960;20.158;2023-04-07T11:14:28;100065.70;;;9.52;85.39
55801;BME280;41730;51.960;20.158;2023-04-07T11:16:58;100070.39;;;9.60;85.60
55801;BME280;41730;51.960;20.158;2023-04-07T11:19:29;100075.01;;;9.60;85.70
55801;BME280;41730;51.960;20.158;2023-04-07T11:22:14;100076.61;;;9.46;86.39
55801;BME280;41730;51.960;20.158;2023-04-07T11:24:57;100075.25;;;9.35;87.13
55801;BME280;41730;51.960;20.158;2023-04-07T11:27:27;100076.89;;;9.38;87.18
55801;BME280;41730;51.960;20.158;2023-04-07T11:29:58;100075.39;;;9.40;87.18
55801;BME280;41730;51.960;20.158;2023-04-07T11:32:28;100074.71;;;9.44;86.80
55801;BME280;41730;51.960;20.158;2023-04-07T11:34:57;100076.77;;;9.40;87.05
55801;BME280;41730;51.960;20.158;2023-04-07T11:37:26;100078.73;;;9.40;87.31
55801;BME280;41730;51.960;20.158;2023-04-07T11:39:57;100080.93;;;9.38;87.61
55801;BME280;41730;51.960;20.158;2023-04-07T11:42:33;100081.75;;;9.57;87.40
55801;BME280;41730;51.960;20.158;2023-04-07T11:45:05;100079.14;;;9.63;86.96
55801;BME280;41730;51.960;20.158;2023-04-07T11:47:36;100081.92;;;9.50;87.38
55801;BME280;41730;51.960;20.158;2023-04-07T11:50:07;100081.90;;;9.52;87.57
55801;BME280;41730;51.960;20.158;2023-04-07T11:52:41;100083.13;;;9.61;87.56
55801;BME280;41730;51.960;20.158;2023-04-07T11:55:21;100084.45;;;9.65;87.56
55801;BME280;41730;51.960;20.158;2023-04-07T11:57:52;100086.95;;;9.66;87.36
55801;BME280;41730;51.960;20.158;2023-04-07T12:00:22;100082.38;;;9.71;87.41
55801;BME280;41730;51.960;20.158;2023-04-07T12:02:51;100085.83;;;9.58;88.06
55801;BME280;41730;51.960;20.158;2023-04-07T12:05:21;100084.03;;;9.56;88.35
55801;BME280;41730;51.960;20.158;2023-04-07T12:07:54;100082.99;;;9.72;88.19
55801;BME280;41730;51.960;20.158;2023-04-07T12:10:25;100083.42;;;9.79;87.62
55801;BME280;41730;51.960;20.158;2023-04-07T12:12:54;100081.59;;;9.87;87.61
55801;BME280;41730;51.960;20.158;2023-04-07T12:15:26;100080.96;;;9.92;87.63
55801;BME280;41730;51.960;20.158;2023-04-07T12:17:55;100079.31;;;9.91;88.08
55801;BME280;41730;51.960;20.158;2023-04-07T12:20:25;100080.02;;;9.89;88.48
55801;BME280;41730;51.960;20.158;2023-04-07T12:22:54;100077.45;;;9.96;88.48
55801;BME280;41730;51.960;20.158;2023-04-07T12:25:24;100076.52;;;10.08;88.32
55801;BME280;41730;51.960;20.158;2023-04-07T12:27:54;100074.70;;;10.26;87.74
55801;BME280;41730;51.960;20.158;2023-04-07T12:30:23;100067.27;;;10.35;87.41
55801;BME280;41730;51.960;20.158;2023-04-07T12:32:52;100071.61;;;10.48;86.93
55801;BME280;41730;51.960;20.158;2023-04-07T12:35:22;100072.26;;;10.51;86.85
55801;BME280;41730;51.960;20.158;2023-04-07T12:37:51;100073.45;;;10.45;87.26
55801;BME280;41730;51.960;20.158;2023-04-07T12:40:20;100071.35;;;10.55;87.18
55801;BME280;41730;51.960;20.158;2023-04-07T12:42:49;100074.43;;;10.63;87.06
55801;BME280;41730;51.960;20.158;2023-04-07T12:45:22;100075.52;;;10.70;86.60
55801;BME280;41730;51.960;20.158;2023-04-07T12:47:53;100074.14;;;10.60;86.99
55801;BME280;41730;51.960;20.158;2023-04-07T12:50:24;100076.48;;;10.73;86.65
55801;BME280;41730;51.960;20.158;2023-04-07T12:52:53;100077.65;;;10.64;86.74
55801;BME280;41730;51.960;20.158;2023-04-07T12:55:23;100072.55;;;10.52;87.52
55801;BME280;41730;51.960;20.158;2023-04-07T12:57:52;100076.61;;;10.56;87.67
55801;BME280;41730;51.960;20.158;2023-04-07T13:00:23;100075.58;;;10.59;87.52
55801;BME280;41730;51.960;20.158;2023-04-07T13:02:52;100079.23;;;10.62;87.54
55801;BME280;41730;51.960;20.158;2023-04-07T13:05:21;100077.92;;;10.69;87.18
55801;BME280;41730;51.960;20.158;2023-04-07T13:07:50;100079.19;;;10.68;87.07
55801;BME280;41730;51.960;20.158;2023-04-07T13:10:19;100075.16;;;10.66;87.51
55801;BME280;41730;51.960;20.158;2023-04-07T13:12:48;100076.05;;;10.74;87.14
55801;BME280;41730;51.960;20.158;2023-04-07T13:15:17;100077.29;;;10.74;87.20
55801;BME280;41730;51.960;20.158;2023-04-07T13:17:46;100077.83;;;10.72;87.38
55801;BME280;41730;51.960;20.158;2023-04-07T13:20:15;100076.96;;;10.70;87.61
55801;BME280;41730;51.960;20.158;2023-04-07T13:22:48;100081.54;;;10.74;87.50
55801;BME280;41730;51.960;20.158;2023-04-07T13:25:33;100083.14;;;10.71;87.63